sensor_id;sensor_type;location;lat;lon;timestamp;temperature;humidity
4411;DHT22;2218;51.408;7.208;2023-09-19T00:00:25;23.40;53.90
4411;DHT22;2218;51.408;7.208;2023-09-19T00:02:55;23.40;53.80
4411;DHT22;2218;51.408;7.208;2023-09-19T00:05:24;23.40;53.80
4411;DHT22;2218;51.408;7.208;2023-09-19T00:07:54;23.40;53.90
4411;DHT22;2218;51.408;7.208;2023-09-19T00:10:24;23.40;53.90
4411;DHT22;2218;51.408;7.208;2023-09-19T00:12:52;23.40;53.90
4411;DHT22;2218;51.408;7.208;2023-09-19T00:15:21;23.40;53.90
4411;DHT22;2218;51.408;7.208;2023-09-19T00:17:48;23.40;53.90
4411;DHT22;2218;51.408;7.208;2023-09-19T00:20:19;23.40;53.90
4411;DHT22;2218;51.408;7.208;2023-09-19T00:22:48;23.40;53.90
4411;DHT22;2218;51.408;7.208;2023-09-19T00:25:17;23.40;53.80
4411;DHT22;2218;51.408;7.208;2023-09-19T00:27:44;23.40;53.70
4411;DHT22;2218;51.408;7.208;2023-09-19T00:30:17;23.40;53.60
4411;DHT22;2218;51.408;7.208;2023-09-19T00:32:46;23.40;53.70
4411;DHT22;2218;51.408;7.208;2023-09-19T00:35:14;23.40;53.60
4411;DHT22;2218;51.408;7.208;2023-09-19T00:37:43;23.40;53.60
4411;DHT22;2218;51.408;7.208;2023-09-19T00:40:10;23.40;53.60
4411;DHT22;2218;51.408;7.208;2023-09-19T00:42:41;23.40;53.50
4411;DHT22;2218;51.408;7.208;2023-09-19T00:45:09;23.40;53.40
4411;DHT22;2218;51.408;7.208;2023-09-19T00:47:39;23.40;53.40
4411;DHT22;2218;51.408;7.208;2023-09-19T00:50:09;23.40;53.40
4411;DHT22;2218;51.408;7.208;2023-09-19T00:52:40;23.40;53.40
4411;DHT22;2218;51.408;7.208;2023-09-19T00:55:11;23.40;53.20
4411;DHT22;2218;51.408;7.208;2023-09-19T00:57:40;23.30;53.20
4411;DHT22;2218;51.408;7.208;2023-09-19T01:00:08;23.40;53.20
4411;DHT22;2218;51.408;7.208;2023-09-19T01:02:41;23.40;53.10
4411;DHT22;2218;51.408;7.208;2023-09-19T01:05:09;23.40;53.10
4411;DHT22;2218;51.408;7.208;2023-09-19T01:07:38;23.40;53.10
4411;DHT22;2218;51.408;7.208;2023-09-19T01:10:09;23.40;53.10
4411;DHT22;2218;51.408;7.208;2023-09-19T01:12:48;23.40;53.00
4411;DHT22;2218;51.408;7.208;2023-09-19T01:15:28;23.30;52.80
4411;DHT22;2218;51.408;7.208;2023-09-19T01:18:14;23.30;52.90
4411;DHT22;2218;51.408;7.208;2023-09-19T01:20:53;23.30;52.90
4411;DHT22;2218;51.408;7.208;2023-09-19T01:23:38;23.30;52.90
4411;DHT22;2218;51.408;7.208;2023-09-19T01:26:30;23.30;52.90
4411;DHT22;2218;51.408;7.208;2023-09-19T01:29:26;23.30;52.80
4411;DHT22;2218;51.408;7.208;2023-09-19T01:32:06;23.30;52.80
4411;DHT22;2218;51.408;7.208;2023-09-19T01:34:46;23.30;52.90
4411;DHT22;2218;51.408;7.208;2023-09-19T01:37:14;23.30;52.80
4411;DHT22;2218;51.408;7.208;2023-09-19T01:39:46;23.30;52.80
4411;DHT22;2218;51.408;7.208;2023-09-19T01:42:24;23.30;52.70
4411;DHT22;2218;51.408;7.208;2023-09-19T01:45:03;23.30;52.70
4411;DHT22;2218;51.408;7.208;2023-09-19T01:47:46;23.30;52.70
4411;DHT22;2218;51.408;7.208;2023-09-19T01:50:21;23.30;52.70
4411;DHT22;2218;51.408;7.208;2023-09-19T01:52:59;23.20;52.50
4411;DHT22;2218;51.408;7.208;2023-09-19T01:55:30;23.20;52.50
4411;DHT22;2218;51.408;7.208;2023-09-19T01:58:07;23.20;52.50
4411;DHT22;2218;51.408;7.208;2023-09-19T02:00:38;23.20;52.50
4411;DHT22;2218;51.408;7.208;2023-09-19T02:03:11;23.20;52.50
4411;DHT22;2218;51.408;7.208;2023-09-19T02:05:39;23.20;52.30
4411;DHT22;2218;51.408;7.208;2023-09-19T02:08:06;23.20;52.30
4411;DHT22;2218;51.408;7.208;2023-09-19T02:10:34;23.20;52.30
4411;DHT22;2218;51.408;7.208;2023-09-19T02:13:01;23.20;52.20
4411;DHT22;2218;51.408;7.208;2023-09-19T02:15:30;23.20;52.30
4411;DHT22;2218;51.408;7.208;2023-09-19T02:17:59;23.20;52.20
4411;DHT22;2218;51.408;7.208;2023-09-19T02:20:27;23.20;52.20
4411;DHT22;2218;51.408;7.208;2023-09-19T02:22:54;23.20;52.10
4411;DHT22;2218;51.408;7.208;2023-09-19T02:25:21;23.20;52.10
4411;DHT22;2218;51.408;7.208;2023-09-19T02:27:48;23.20;51.80
4411;DHT22;2218;51.408;7.208;2023-09-19T02:30:14;23.20;52.00
4411;DHT22;2218;51.408;7.208;2023-09-19T02:32:46;23.20;52.00
4411;DHT22;2218;51.408;7.208;2023-09-19T02:35:15;23.20;51.90
4411;DHT22;2218;51.408;7.208;2023-09-19T02:37:43;23.20;51.90
4411;DHT22;2218;51.408;7.208;2023-09-19T02:40:11;23.10;51.90
4411;DHT22;2218;51.408;7.208;2023-09-19T02:42:45;23.10;52.00
4411;DHT22;2218;51.408;7.208;2023-09-19T02:45:16;23.10;52.40
4411;DHT22;2218;51.408;7.208;2023-09-19T02:47:44;23.10;51.90
4411;DHT22;2218;51.408;7.208;2023-09-19T02:50:12;23.10;51.80
4411;DHT22;2218;51.408;7.208;2023-09-19T02:52:43;23.10;51.90
4411;DHT22;2218;51.408;7.208;2023-09-19T02:55:11;23.10;51.80
4411;DHT22;2218;51.408;7.208;2023-09-19T02:57:40;23.10;51.70
4411;DHT22;2218;51.408;7.208;2023-09-19T03:00:09;23.10;52.30
4411;DHT22;2218;51.408;7.208;2023-09-19T03:02:38;23.10;51.90
4411;DHT22;2218;51.408;7.208;2023-09-19T03:05:07;23.10;51.80
4411;DHT22;2218;51.408;7.208;2023-09-19T03:07:37;23.10;51.90
4411;DHT22;2218;51.408;7.208;2023-09-19T03:10:06;23.10;52.00
4411;DHT22;2218;51.408;7.208;2023-09-19T03:12:35;23.10;51.90
4411;DHT22;2218;51.408;7.208;2023-09-19T03:15:03;23.10;51.90
4411;DHT22;2218;51.408;7.208;2023-09-19T03:17:31;23.10;51.90
4411;DHT22;2218;51.408;7.208;2023-09-19T03:19:58;23.10;51.80
4411;DHT22;2218;51.408;7.208;2023-09-19T03:22:26;23.10;51.70
4411;DHT22;2218;51.408;7.208;2023-09-19T03:24:54;23.10;51.70
4411;DHT22;2218;51.408;7.208;2023-09-19T03:27:23;23.10;51.70
4411;DHT22;2218;51.408;7.208;2023-09-19T03:29:51;23.10;51.70
4411;DHT22;2218;51.408;7.208;2023-09-19T03:32:18;23.10;51.70
4411;DHT22;2218;51.408;7.208;2023-09-19T03:34:46;23.10;51.60
4411;DHT22;2218;51.408;7.208;2023-09-19T03:37:14;23.10;51.50
4411;DHT22;2218;51.408;7.208;2023-09-19T03:39:41;23.10;51.40
4411;DHT22;2218;51.408;7.208;2023-09-19T03:42:09;23.10;51.40
4411;DHT22;2218;51.408;7.208;2023-09-19T03:44:37;23.00;51.30
4411;DHT22;2218;51.408;7.208;2023-09-19T03:47:04;23.10;51.30
4411;DHT22;2218;51.408;7.208;2023-09-19T03:49:32;23.00;51.20
4411;DHT22;2218;51.408;7.208;2023-09-19T03:52:00;23.10;51.20
4411;DHT22;2218;51.408;7.208;2023-09-19T03:54:27;23.00;51.10
4411;DHT22;2218;51.408;7.208;2023-09-19T03:56:54;23.00;51.10
4411;DHT22;2218;51.408;7.208;2023-09-19T03:59:21;23.00;51.00
4411;DHT22;2218;51.408;7.208;2023-09-19T04:01:49;23.00;51.00
4411;DHT22;2218;51.408;7.208;2023-09-19T04:04:21;23.00;50.40
4411;DHT22;2218;51.408;7.208;2023-09-19T04:06:50;23.00;49.90
4411;DHT22;2218;51.408;7.208;2023-09-19T04:09:18;23.00;49.70
4411;DHT22;2218;51.408;7.208;2023-09-19T04:11:45;23.00;49.60
4411;DHT22;2218;51.408;7.208;2023-09-19T04:14:12;23.00;49.30
4411;DHT22;2218;51.408;7.208;2023-09-19T04:16:39;23.00;49.50
4411;DHT22;2218;51.408;7.208;2023-09-19T04:19:07;23.00;49.30
4411;DHT22;2218;51.408;7.208;2023-09-19T04:21:34;23.00;49.40
4411;DHT22;2218;51.408;7.208;2023-09-19T04:24:01;23.00;49.60
4411;DHT22;2218;51.408;7.208;2023-09-19T04:26:28;23.00;49.80
4411;DHT22;2218;51.408;7.208;2023-09-19T04:28:55;23.00;49.90
4411;DHT22;2218;51.408;7.208;2023-09-19T04:31:22;23.00;49.90
4411;DHT22;2218;51.408;7.208;2023-09-19T04:33:49;23.00;49.90
4411;DHT22;2218;51.408;7.208;2023-09-19T04:36:17;23.00;49.30
4411;DHT22;2218;51.408;7.208;2023-09-19T04:38:45;23.00;49.10
4411;DHT22;2218;51.408;7.208;2023-09-19T04:41:11;23.00;48.80
4411;DHT22;2218;51.408;7.208;2023-09-19T04:43:38;23.00;48.70
4411;DHT22;2218;51.408;7.208;2023-09-19T04:46:05;23.00;48.70
4411;DHT22;2218;51.408;7.208;2023-09-19T04:48:33;23.00;48.70
4411;DHT22;2218;51.408;7.208;2023-09-19T04:51:01;23.00;49.30
4411;DHT22;2218;51.408;7.208;2023-09-19T04:53:30;23.00;49.40
4411;DHT22;2218;51.408;7.208;2023-09-19T04:55:56;23.00;48.70
4411;DHT22;2218;51.408;7.208;2023-09-19T04:58:23;23.00;48.60
4411;DHT22;2218;51.408;7.208;2023-09-19T05:00:50;23.00;48.60
4411;DHT22;2218;51.408;7.208;2023-09-19T05:03:17;23.00;48.50
4411;DHT22;2218;51.408;7.208;2023-09-19T05:05:46;23.00;48.40
4411;DHT22;2218;51.408;7.208;2023-09-19T05:08:13;23.00;48.60
4411;DHT22;2218;51.408;7.208;2023-09-19T05:10:42;23.00;48.60
4411;DHT22;2218;51.408;7.208;2023-09-19T05:13:09;23.00;48.30
4411;DHT22;2218;51.408;7.208;2023-09-19T05:15:37;23.00;48.60
4411;DHT22;2218;51.408;7.208;2023-09-19T05:18:05;23.00;48.30
4411;DHT22;2218;51.408;7.208;2023-09-19T05:20:32;23.00;48.30
4411;DHT22;2218;51.408;7.208;2023-09-19T05:23:02;23.00;48.20
4411;DHT22;2218;51.408;7.208;2023-09-19T05:25:34;23.00;48.30
4411;DHT22;2218;51.408;7.208;2023-09-19T05:28:05;23.00;48.10
4411;DHT22;2218;51.408;7.208;2023-09-19T05:30:33;23.00;48.40
4411;DHT22;2218;51.408;7.208;2023-09-19T05:33:01;23.00;48.10
4411;DHT22;2218;51.408;7.208;2023-09-19T05:35:30;23.00;48.20
4411;DHT22;2218;51.408;7.208;2023-09-19T05:37:58;23.00;48.10
4411;DHT22;2218;51.408;7.208;2023-09-19T05:40:25;23.00;48.20
4411;DHT22;2218;51.408;7.208;2023-09-19T05:42:53;23.00;48.00
4411;DHT22;2218;51.408;7.208;2023-09-19T05:45:21;23.00;48.00
4411;DHT22;2218;51.408;7.208;2023-09-19T05:47:48;23.00;48.00
4411;DHT22;2218;51.408;7.208;2023-09-19T05:50:17;23.00;48.10
4411;DHT22;2218;51.408;7.208;2023-09-19T05:52:51;23.00;47.90
4411;DHT22;2218;51.408;7.208;2023-09-19T05:55:19;23.00;48.30
4411;DHT22;2218;51.408;7.208;2023-09-19T05:57:49;23.00;48.00
4411;DHT22;2218;51.408;7.208;2023-09-19T06:00:18;23.00;47.80
4411;DHT22;2218;51.408;7.208;2023-09-19T06:02:51;23.00;47.80
4411;DHT22;2218;51.408;7.208;2023-09-19T06:05:19;23.00;48.30
4411;DHT22;2218;51.408;7.208;2023-09-19T06:07:46;23.00;48.60
4411;DHT22;2218;51.408;7.208;2023-09-19T06:10:14;22.90;48.70
4411;DHT22;2218;51.408;7.208;2023-09-19T06:12:43;22.90;48.80
4411;DHT22;2218;51.408;7.208;2023-09-19T06:15:11;22.90;48.80
4411;DHT22;2218;51.408;7.208;2023-09-19T06:17:41;22.90;48.90
4411;DHT22;2218;51.408;7.208;2023-09-19T06:20:10;22.90;49.00
4411;DHT22;2218;51.408;7.208;2023-09-19T06:22:41;22.90;49.00
4411;DHT22;2218;51.408;7.208;2023-09-19T06:25:09;22.90;49.00
4411;DHT22;2218;51.408;7.208;2023-09-19T06:27:38;23.00;49.10
4411;DHT22;2218;51.408;7.208;2023-09-19T06:30:07;23.00;49.10
4411;DHT22;2218;51.408;7.208;2023-09-19T06:32:36;23.00;49.10
4411;DHT22;2218;51.408;7.208;2023-09-19T06:35:04;22.90;49.00
4411;DHT22;2218;51.408;7.208;2023-09-19T06:37:35;23.00;49.10
4411;DHT22;2218;51.408;7.208;2023-09-19T06:40:06;22.90;49.10
4411;DHT22;2218;51.408;7.208;2023-09-19T06:42:39;22.90;49.10
4411;DHT22;2218;51.408;7.208;2023-09-19T06:45:08;23.00;49.10
4411;DHT22;2218;51.408;7.208;2023-09-19T06:47:37;22.90;49.00
4411;DHT22;2218;51.408;7.208;2023-09-19T06:50:04;22.90;49.10
4411;DHT22;2218;51.408;7.208;2023-09-19T06:52:40;23.00;49.30
4411;DHT22;2218;51.408;7.208;2023-09-19T06:55:08;22.90;49.10
4411;DHT22;2218;51.408;7.208;2023-09-19T06:57:37;22.90;49.00
4411;DHT22;2218;51.408;7.208;2023-09-19T07:00:07;22.90;49.00
4411;DHT22;2218;51.408;7.208;2023-09-19T07:02:41;23.00;49.00
4411;DHT22;2218;51.408;7.208;2023-09-19T07:05:08;23.00;49.40
4411;DHT22;2218;51.408;7.208;2023-09-19T07:07:36;23.00;48.80
4411;DHT22;2218;51.408;7.208;2023-09-19T07:10:05;23.00;48.80
4411;DHT22;2218;51.408;7.208;2023-09-19T07:12:33;23.00;48.90
4411;DHT22;2218;51.408;7.208;2023-09-19T07:15:00;23.00;48.90
4411;DHT22;2218;51.408;7.208;2023-09-19T07:17:27;23.00;49.00
4411;DHT22;2218;51.408;7.208;2023-09-19T07:19:55;23.00;49.10
4411;DHT22;2218;51.408;7.208;2023-09-19T07:22:23;23.00;49.10
4411;DHT22;2218;51.408;7.208;2023-09-19T07:24:50;23.00;49.10
4411;DHT22;2218;51.408;7.208;2023-09-19T07:27:19;22.90;49.00
4411;DHT22;2218;51.408;7.208;2023-09-19T07:29:46;23.00;49.10
4411;DHT22;2218;51.408;7.208;2023-09-19T07:32:13;22.90;49.00
4411;DHT22;2218;51.408;7.208;2023-09-19T07:34:42;23.00;49.10
4411;DHT22;2218;51.408;7.208;2023-09-19T07:37:10;23.00;49.60
4411;DHT22;2218;51.408;7.208;2023-09-19T07:39:38;23.00;49.20
4411;DHT22;2218;51.408;7.208;2023-09-19T07:42:06;23.00;49.10
4411;DHT22;2218;51.408;7.208;2023-09-19T07:44:36;23.00;49.20
4411;DHT22;2218;51.408;7.208;2023-09-19T07:47:03;23.00;49.20
4411;DHT22;2218;51.408;7.208;2023-09-19T07:49:30;23.00;49.20
4411;DHT22;2218;51.408;7.208;2023-09-19T07:51:57;23.00;49.20
4411;DHT22;2218;51.408;7.208;2023-09-19T07:54:24;23.00;49.30
4411;DHT22;2218;51.408;7.208;2023-09-19T07:56:55;23.00;49.30
4411;DHT22;2218;51.408;7.208;2023-09-19T07:59:23;23.00;49.10
4411;DHT22;2218;51.408;7.208;2023-09-19T08:01:51;23.00;49.20
4411;DHT22;2218;51.408;7.208;2023-09-19T08:04:18;23.00;49.20
4411;DHT22;2218;51.408;7.208;2023-09-19T08:06:45;23.00;49.20
4411;DHT22;2218;51.408;7.208;2023-09-19T08:09:12;23.00;49.20
4411;DHT22;2218;51.408;7.208;2023-09-19T08:11:46;23.00;49.20
4411;DHT22;2218;51.408;7.208;2023-09-19T08:14:13;23.00;49.20
4411;DHT22;2218;51.408;7.208;2023-09-19T08:16:40;23.00;49.30
4411;DHT22;2218;51.408;7.208;2023-09-19T08:19:10;23.00;49.30
4411;DHT22;2218;51.408;7.208;2023-09-19T08:21:37;23.00;49.30
4411;DHT22;2218;51.408;7.208;2023-09-19T08:24:05;23.00;49.30
4411;DHT22;2218;51.408;7.208;2023-09-19T08:26:32;23.00;49.30
4411;DHT22;2218;51.408;7.208;2023-09-19T08:28:59;23.00;49.40
4411;DHT22;2218;51.408;7.208;2023-09-19T08:31:30;23.00;49.40
4411;DHT22;2218;51.408;7.208;2023-09-19T08:33:57;23.00;49.40
4411;DHT22;2218;51.408;7.208;2023-09-19T08:36:25;23.00;49.40
4411;DHT22;2218;51.408;7.208;2023-09-19T08:38:52;23.00;49.40
4411;DHT22;2218;51.408;7.208;2023-09-19T08:41:19;23.00;49.40
4411;DHT22;2218;51.408;7.208;2023-09-19T08:43:46;23.00;49.30
4411;DHT22;2218;51.408;7.208;2023-09-19T08:46:15;23.00;49.40
4411;DHT22;2218;51.408;7.208;2023-09-19T08:48:46;23.00;48.80
4411;DHT22;2218;51.408;7.208;2023-09-19T08:51:27;22.90;48.70
4411;DHT22;2218;51.408;7.208;2023-09-19T08:54:05;22.90;48.60
4411;DHT22;2218;51.408;7.208;2023-09-19T08:56:35;22.90;48.70
4411;DHT22;2218;51.408;7.208;2023-09-19T08:59:06;22.80;48.60
4411;DHT22;2218;51.408;7.208;2023-09-19T09:01:34;22.80;48.70
4411;DHT22;2218;51.408;7.208;2023-09-19T09:04:03;22.80;48.70
4411;DHT22;2218;51.408;7.208;2023-09-19T09:06:36;22.80;48.70
4411;DHT22;2218;51.408;7.208;2023-09-19T09:09:05;22.80;48.70
4411;DHT22;2218;51.408;7.208;2023-09-19T09:11:33;22.80;48.60
4411;DHT22;2218;51.408;7.208;2023-09-19T09:14:00;22.80;48.60
4411;DHT22;2218;51.408;7.208;2023-09-19T09:16:29;22.80;48.60
4411;DHT22;2218;51.408;7.208;2023-09-19T09:18:56;22.80;48.70
4411;DHT22;2218;51.408;7.208;2023-09-19T09:21:25;22.80;48.60
4411;DHT22;2218;51.408;7.208;2023-09-19T09:23:54;22.80;48.60
4411;DHT22;2218;51.408;7.208;2023-09-19T09:26:41;22.80;48.50
4411;DHT22;2218;51.408;7.208;2023-09-19T09:29:09;22.70;48.50
4411;DHT22;2218;51.408;7.208;2023-09-19T09:31:36;22.70;48.60
4411;DHT22;2218;51.408;7.208;2023-09-19T09:34:03;22.70;48.60
4411;DHT22;2218;51.408;7.208;2023-09-19T09:36:37;22.80;48.50
4411;DHT22;2218;51.408;7.208;2023-09-19T09:39:08;22.70;48.20
4411;DHT22;2218;51.408;7.208;2023-09-19T09:41:43;22.70;48.20
4411;DHT22;2218;51.408;7.208;2023-09-19T09:44:16;22.70;48.20
4411;DHT22;2218;51.408;7.208;2023-09-19T09:46:45;22.70;48.40
4411;DHT22;2218;51.408;7.208;2023-09-19T09:49:49;22.70;48.10
4411;DHT22;2218;51.408;7.208;2023-09-19T09:52:20;22.60;47.90
4411;DHT22;2218;51.408;7.208;2023-09-19T09:55:00;22.60;48.00
4411;DHT22;2218;51.408;7.208;2023-09-19T09:57:33;22.60;48.10
4411;DHT22;2218;51.408;7.208;2023-09-19T10:00:00;22.70;48.20
4411;DHT22;2218;51.408;7.208;2023-09-19T10:02:42;22.70;47.90
4411;DHT22;2218;51.408;7.208;2023-09-19T10:05:13;22.70;47.80
4411;DHT22;2218;51.408;7.208;2023-09-19T10:07:46;22.60;47.80
4411;DHT22;2218;51.408;7.208;2023-09-19T10:10:31;22.70;48.00
4411;DHT22;2218;51.408;7.208;2023-09-19T10:13:10;22.60;47.80
4411;DHT22;2218;51.408;7.208;2023-09-19T10:15:42;22.70;48.30
4411;DHT22;2218;51.408;7.208;2023-09-19T10:18:14;22.70;47.50
4411;DHT22;2218;51.408;7.208;2023-09-19T10:20:44;22.60;47.90
4411;DHT22;2218;51.408;7.208;2023-09-19T10:23:15;22.70;47.40
4411;DHT22;2218;51.408;7.208;2023-09-19T10:25:49;22.70;47.10
4411;DHT22;2218;51.408;7.208;2023-09-19T10:28:18;22.60;46.50
4411;DHT22;2218;51.408;7.208;2023-09-19T10:30:48;22.60;46.60
4411;DHT22;2218;51.408;7.208;2023-09-19T10:33:18;22.60;46.90
4411;DHT22;2218;51.408;7.208;2023-09-19T10:35:47;22.70;46.70
4411;DHT22;2218;51.408;7.208;2023-09-19T10:38:18;22.60;46.50
4411;DHT22;2218;51.408;7.208;2023-09-19T10:40:50;22.50;46.40
4411;DHT22;2218;51.408;7.208;2023-09-19T10:43:18;22.50;46.60
4411;DHT22;2218;51.408;7.208;2023-09-19T10:45:47;22.60;46.40
4411;DHT22;2218;51.408;7.208;2023-09-19T10:48:16;22.60;46.40
4411;DHT22;2218;51.408;7.208;2023-09-19T10:50:48;22.60;46.40
4411;DHT22;2218;51.408;7.208;2023-09-19T10:53:17;22.60;45.70
4411;DHT22;2218;51.408;7.208;2023-09-19T10:55:53;22.50;45.80
4411;DHT22;2218;51.408;7.208;2023-09-19T10:58:27;22.40;45.80
4411;DHT22;2218;51.408;7.208;2023-09-19T11:00:57;22.50;46.30
4411;DHT22;2218;51.408;7.208;2023-09-19T11:03:31;22.60;46.30
4411;DHT22;2218;51.408;7.208;2023-09-19T11:06:03;22.70;46.10
4411;DHT22;2218;51.408;7.208;2023-09-19T11:09:06;22.70;46.50
4411;DHT22;2218;51.408;7.208;2023-09-19T11:11:49;22.70;46.30
4411;DHT22;2218;51.408;7.208;2023-09-19T11:14:39;22.70;45.90
4411;DHT22;2218;51.408;7.208;2023-09-19T11:17:38;22.70;46.10
4411;DHT22;2218;51.408;7.208;2023-09-19T11:20:23;22.70;45.90
4411;DHT22;2218;51.408;7.208;2023-09-19T11:23:18;22.70;45.70
4411;DHT22;2218;51.408;7.208;2023-09-19T11:25:50;22.80;45.40
4411;DHT22;2218;51.408;7.208;2023-09-19T11:28:33;22.90;45.40
4411;DHT22;2218;51.408;7.208;2023-09-19T11:31:40;22.90;45.20
4411;DHT22;2218;51.408;7.208;2023-09-19T11:34:39;22.90;45.00
4411;DHT22;2218;51.408;7.208;2023-09-19T11:40:32;22.90;45.20
4411;DHT22;2218;51.408;7.208;2023-09-19T11:43:29;22.90;45.00
4411;DHT22;2218;51.408;7.208;2023-09-19T11:46:05;22.90;44.90
4411;DHT22;2218;51.408;7.208;2023-09-19T11:48:33;22.90;44.90
4411;DHT22;2218;51.408;7.208;2023-09-19T11:51:10;22.90;45.00
4411;DHT22;2218;51.408;7.208;2023-09-19T11:53:45;22.90;44.70
4411;DHT22;2218;51.408;7.208;2023-09-19T11:56:16;22.90;44.60
4411;DHT22;2218;51.408;7.208;2023-09-19T11:58:45;22.90;45.00
4411;DHT22;2218;51.408;7.208;2023-09-19T12:01:15;22.90;44.90
4411;DHT22;2218;51.408;7.208;2023-09-19T12:03:53;22.90;45.00
4411;DHT22;2218;51.408;7.208;2023-09-19T12:06:23;22.90;45.10
4411;DHT22;2218;51.408;7.208;2023-09-19T12:08:51;22.90;45.10
4411;DHT22;2218;51.408;7.208;2023-09-19T12:11:21;22.90;45.10
4411;DHT22;2218;51.408;7.208;2023-09-19T12:13:51;22.90;45.20
4411;DHT22;2218;51.408;7.208;2023-09-19T12:16:19;22.90;45.20
4411;DHT22;2218;51.408;7.208;2023-09-19T12:18:50;22.80;45.00
4411;DHT22;2218;51.408;7.208;2023-09-19T12:21:27;22.80;45.10
4411;DHT22;2218;51.408;7.208;2023-09-19T12:24:07;22.90;45.20
4411;DHT22;2218;51.408;7.208;2023-09-19T12:26:42;22.90;45.10
4411;DHT22;2218;51.408;7.208;2023-09-19T12:29:16;22.90;45.10
4411;DHT22;2218;51.408;7.208;2023-09-19T12:31:51;22.90;45.10
4411;DHT22;2218;51.408;7.208;2023-09-19T12:34:24;23.00;45.10
4411;DHT22;2218;51.408;7.208;2023-09-19T12:37:10;23.00;45.20
4411;DHT22;2218;51.408;7.208;2023-09-19T12:39:42;22.90;45.00
4411;DHT22;2218;51.408;7.208;2023-09-19T12:42:15;22.90;45.10
4411;DHT22;2218;51.408;7.208;2023-09-19T12:44:45;22.90;45.40
4411;DHT22;2218;51.408;7.208;2023-09-19T12:47:15;23.00;45.50
4411;DHT22;2218;51.408;7.208;2023-09-19T12:50:04;23.00;45.70
4411;DHT22;2218;51.408;7.208;2023-09-19T12:52:36;23.00;45.80
4411;DHT22;2218;51.408;7.208;2023-09-19T12:55:04;23.10;45.80
4411;DHT22;2218;51.408;7.208;2023-09-19T12:57:32;23.10;45.80
4411;DHT22;2218;51.408;7.208;2023-09-19T13:00:02;23.10;45.80
4411;DHT22;2218;51.408;7.208;2023-09-19T13:02:31;23.10;44.50
4411;DHT22;2218;51.408;7.208;2023-09-19T13:04:58;23.00;43.20
4411;DHT22;2218;51.408;7.208;2023-09-19T13:07:43;23.00;43.60
4411;DHT22;2218;51.408;7.208;2023-09-19T13:10:11;23.00;43.00
4411;DHT22;2218;51.408;7.208;2023-09-19T13:12:41;23.10;43.20
4411;DHT22;2218;51.408;7.208;2023-09-19T13:15:15;23.10;42.50
4411;DHT22;2218;51.408;7.208;2023-09-19T13:17:47;23.10;42.10
4411;DHT22;2218;51.408;7.208;2023-09-19T13:20:22;23.10;41.60
4411;DHT22;2218;51.408;7.208;2023-09-19T13:22:53;23.10;41.30
4411;DHT22;2218;51.408;7.208;2023-09-19T13:25:24;23.10;41.30
4411;DHT22;2218;51.408;7.208;2023-09-19T13:27:53;23.10;41.30
4411;DHT22;2218;51.408;7.208;2023-09-19T13:30:24;23.10;41.10
4411;DHT22;2218;51.408;7.208;2023-09-19T13:32:52;23.10;41.80
4411;DHT22;2218;51.408;7.208;2023-09-19T13:35:31;23.10;41.30
4411;DHT22;2218;51.408;7.208;2023-09-19T13:37:58;23.00;41.30
4411;DHT22;2218;51.408;7.208;2023-09-19T13:40:26;23.00;41.40
4411;DHT22;2218;51.408;7.208;2023-09-19T13:42:56;23.10;41.60
4411;DHT22;2218;51.408;7.208;2023-09-19T13:45:24;23.10;41.50
4411;DHT22;2218;51.408;7.208;2023-09-19T13:47:52;23.10;41.40
4411;DHT22;2218;51.408;7.208;2023-09-19T13:50:20;23.10;41.40
4411;DHT22;2218;51.408;7.208;2023-09-19T13:52:49;23.10;41.50
4411;DHT22;2218;51.408;7.208;2023-09-19T13:55:17;23.10;41.60
4411;DHT22;2218;51.408;7.208;2023-09-19T13:57:46;23.10;41.90
4411;DHT22;2218;51.408;7.208;2023-09-19T14:00:15;23.10;41.60
4411;DHT22;2218;51.408;7.208;2023-09-19T14:02:44;23.10;41.70
4411;DHT22;2218;51.408;7.208;2023-09-19T14:05:12;23.10;41.80
4411;DHT22;2218;51.408;7.208;2023-09-19T14:07:40;23.10;41.80
4411;DHT22;2218;51.408;7.208;2023-09-19T14:10:08;23.10;41.70
4411;DHT22;2218;51.408;7.208;2023-09-19T14:12:36;23.00;41.80
4411;DHT22;2218;51.408;7.208;2023-09-19T14:15:04;23.00;41.70
4411;DHT22;2218;51.408;7.208;2023-09-19T14:17:32;23.00;42.40
4411;DHT22;2218;51.408;7.208;2023-09-19T14:20:01;23.00;43.20
4411;DHT22;2218;51.408;7.208;2023-09-19T14:22:27;23.00;42.80
4411;DHT22;2218;51.408;7.208;2023-09-19T14:24:55;23.10;43.00
4411;DHT22;2218;51.408;7.208;2023-09-19T14:27:21;23.10;43.00
4411;DHT22;2218;51.408;7.208;2023-09-19T14:29:50;23.10;43.20
4411;DHT22;2218;51.408;7.208;2023-09-19T14:32:18;23.10;43.00
4411;DHT22;2218;51.408;7.208;2023-09-19T14:34:45;23.10;43.40
4411;DHT22;2218;51.408;7.208;2023-09-19T14:37:14;23.20;43.70
4411;DHT22;2218;51.408;7.208;2023-09-19T14:39:41;23.20;43.30
4411;DHT22;2218;51.408;7.208;2023-09-19T14:42:10;23.20;43.30
4411;DHT22;2218;51.408;7.208;2023-09-19T14:44:38;23.20;43.30
4411;DHT22;2218;51.408;7.208;2023-09-19T14:47:05;23.20;43.40
4411;DHT22;2218;51.408;7.208;2023-09-19T14:49:33;23.20;43.50
4411;DHT22;2218;51.408;7.208;2023-09-19T14:52:00;23.20;43.50
4411;DHT22;2218;51.408;7.208;2023-09-19T14:54:31;23.20;43.70
4411;DHT22;2218;51.408;7.208;2023-09-19T14:56:59;23.20;44.00
4411;DHT22;2218;51.408;7.208;2023-09-19T14:59:30;23.20;43.90
4411;DHT22;2218;51.408;7.208;2023-09-19T15:01:57;23.30;44.10
4411;DHT22;2218;51.408;7.208;2023-09-19T15:04:24;23.20;43.80
4411;DHT22;2218;51.408;7.208;2023-09-19T15:06:51;23.30;44.00
4411;DHT22;2218;51.408;7.208;2023-09-19T15:09:20;23.30;44.10
4411;DHT22;2218;51.408;7.208;2023-09-19T15:11:48;23.30;44.30
4411;DHT22;2218;51.408;7.208;2023-09-19T15:14:15;23.30;44.50
4411;DHT22;2218;51.408;7.208;2023-09-19T15:16:42;23.30;44.70
4411;DHT22;2218;51.408;7.208;2023-09-19T15:19:09;23.30;44.60
4411;DHT22;2218;51.408;7.208;2023-09-19T15:21:36;23.30;44.60
4411;DHT22;2218;51.408;7.208;2023-09-19T15:24:04;23.30;44.50
4411;DHT22;2218;51.408;7.208;2023-09-19T15:26:35;23.30;44.40
4411;DHT22;2218;51.408;7.208;2023-09-19T15:29:06;23.30;44.60
4411;DHT22;2218;51.408;7.208;2023-09-19T15:31:35;23.30;45.00
4411;DHT22;2218;51.408;7.208;2023-09-19T15:34:02;23.30;45.10
4411;DHT22;2218;51.408;7.208;2023-09-19T15:36:29;23.30;45.10
4411;DHT22;2218;51.408;7.208;2023-09-19T15:39:00;23.30;45.10
4411;DHT22;2218;51.408;7.208;2023-09-19T15:41:30;23.30;45.70
4411;DHT22;2218;51.408;7.208;2023-09-19T15:44:00;23.30;45.10
4411;DHT22;2218;51.408;7.208;2023-09-19T15:46:31;23.30;45.20
4411;DHT22;2218;51.408;7.208;2023-09-19T15:49:01;23.30;45.20
4411;DHT22;2218;51.408;7.208;2023-09-19T15:51:29;23.30;45.20
4411;DHT22;2218;51.408;7.208;2023-09-19T15:53:56;23.30;45.20
4411;DHT22;2218;51.408;7.208;2023-09-19T15:56:25;23.30;45.80
4411;DHT22;2218;51.408;7.208;2023-09-19T15:58:55;23.30;45.30
4411;DHT22;2218;51.408;7.208;2023-09-19T16:01:23;23.30;45.30
4411;DHT22;2218;51.408;7.208;2023-09-19T16:03:52;23.30;45.30
4411;DHT22;2218;51.408;7.208;2023-09-19T16:06:23;23.30;45.30
4411;DHT22;2218;51.408;7.208;2023-09-19T16:08:52;23.30;45.30
4411;DHT22;2218;51.408;7.208;2023-09-19T16:11:20;23.30;45.30
4411;DHT22;2218;51.408;7.208;2023-09-19T16:13:48;23.30;45.30
4411;DHT22;2218;51.408;7.208;2023-09-19T16:16:16;23.30;45.30
4411;DHT22;2218;51.408;7.208;2023-09-19T16:18:47;23.30;45.30
4411;DHT22;2218;51.408;7.208;2023-09-19T16:21:16;23.30;45.40
4411;DHT22;2218;51.408;7.208;2023-09-19T16:23:45;23.30;45.40
4411;DHT22;2218;51.408;7.208;2023-09-19T16:26:13;23.30;45.40